Neilburg, Canada
Current Conditions -  °F | °C
As of 5:00 PM on Friday 28 Nov 2014 (Local Time) from CYLL Reporting Station
Light Snow Light Snow  
Wind Chill: -31°   Ceiling: 6500
Heat Index: -20°   Visibility: 5mi
Dew Point: -23°   Wind: 13mph
Humidity: 78%   Direction: 350°N
Pressure: 29.69"   Gusts: NA
Location:  52.83°N, 109.63°W
Report Text: CYLL 282300Z 35011KT 5SM -SN SCT028 BKN065 OVC130 M20/M23 A2969 RMK SC4SC1AC3 PRESRR SLP119
Loading
Personal Weather Stations






























Interactive Weather Map New forecast layout! Learn more

10-Day Weather Forecast

Advertisements
Track Severe Weather on mobile